Greta — WDF3298 — position and weather

sailwx.info

Track history (hours):
 
Tides and Currents Weather Stations Pressure Air Temp Water Temp Dewpoint Dewpoint Depression Visibility Wind Speed Wind Dir Waves Ship Positions

Greta

Owner: General Electric Credit Corporation Of Tennessee, Seattle, WA. More information available from US FCC via Universal Licensing System and Coast Guard Vessel Documentation Center.

Last reported at 2017-Mar-20 11:16 UTC. Time now 2017-Aug-22 05:11 UTC.
Position N 51°34' W 127°53'.
Warning: this ship's position is months out of date.

Length 44 m; draft 2 m.

Type: Ship. MMSI: 367438220.

Date/timePositionNaut miles runAvg speedWind from/ knotsBaromVisibWave heightAir tempDewpointWater temp
2017-Mar-20 11:16N 51°34' W 127°53'5 6.3
2017-Mar-20 10:33N 51°29' W 127°52'7 6.2
2017-Mar-20 09:24N 51°22' W 127°51'5 5.7
2017-Mar-20 08:33N 51°17' W 127°52'6 6.0
2017-Mar-20 07:33N 51°11' W 127°51'6 5.8
2017-Mar-20 06:33N 51°06' W 127°45'6 6.1
2017-Mar-20 05:33N 51°02' W 127°38'6 6.0
2017-Mar-20 04:33N 50°58' W 127°31'6 6.1
2017-Mar-20 03:33N 50°55' W 127°24'6 6.2
2017-Mar-20 02:33N 50°51' W 127°15'6 6.5
2017-Mar-20 01:33N 50°48' W 127°07'56 6.8
2017-Mar-19 17:19N 50°23' W 125°48'6 7.0
2017-Mar-19 16:31N 50°22' W 125°39'7 6.0
2017-Mar-19 15:19N 50°20' W 125°28'4 5.1
2017-Mar-19 14:32N 50°17' W 125°24'6 6.3
2017-Mar-19 13:33N 50°11' W 125°22'5 4.9
2017-Mar-19 12:33N 50°07' W 125°19'7 6.7
2017-Mar-19 11:33N 50°01' W 125°13'6 6.3
2017-Mar-19 10:33N 49°57' W 125°06'6 6.1
2017-Mar-19 09:33N 49°53' W 124°59'6 6.3
2017-Mar-19 08:33N 49°49' W 124°51'6 6.4
2017-Mar-19 07:33N 49°45' W 124°43'7 7.1
2017-Mar-19 06:33N 49°41' W 124°34'6 5.8
2017-Mar-19 05:33N 49°37' W 124°28'6 5.8
2017-Mar-19 04:33N 49°34' W 124°20'6 5.7
2017-Mar-19 03:33N 49°31' W 124°13'6 5.9
2017-Mar-19 02:33N 49°27' W 124°06'6 5.6
2017-Mar-19 01:33N 49°24' W 123°59'6 6.2
2017-Mar-19 00:33N 49°20' W 123°51'6 5.7
2017-Mar-18 23:33N 49°17' W 123°44'6 5.5
2017-Mar-18 22:32N 49°13' W 123°38'4 4.5
2017-Mar-18 21:33N 49°10' W 123°32'3 3.3
2017-Mar-18 20:33N 49°08' W 123°29'3 3.0
2017-Mar-18 19:33N 49°06' W 123°25'4 4.5
2017-Mar-18 18:33N 49°03' W 123°20'5 5.0
2017-Mar-18 17:33N 49°00' W 123°14'5 5.1
2017-Mar-18 16:33N 48°57' W 123°08'6 6.3
2017-Mar-18 15:33N 48°53' W 123°01'6 6.0
2017-Mar-18 14:32N 48°49' W 122°53'6 6.1
2017-Mar-18 13:33N 48°46' W 122°46'6 5.9
2017-Mar-18 12:33N 48°40' W 122°42'6 6.5
2017-Mar-18 11:33N 48°34' W 122°45'6 6.4
2017-Mar-18 10:33N 48°28' W 122°44'6 6.5
2017-Mar-18 09:33N 48°21' W 122°45'6 6.5
2017-Mar-18 08:33N 48°15' W 122°48'8 7.6
2017-Mar-18 07:33N 48°09' W 122°42'8 8.1
2017-Mar-18 06:33N 48°01' W 122°37'7 7.5
2017-Mar-18 05:33N 47°56' W 122°29'6 6.5
2017-Mar-18 04:33N 47°50' W 122°27'6 6.4
2017-Mar-18 03:33N 47°43' W 122°26'6 5.9
2017-Mar-18 02:33N 47°37' W 122°25'3 2.8
2017-Mar-18 01:33N 47°35' W 122°22'0 0.0
2017-Mar-18 00:33N 47°35' W 122°22'1 0.6
2017-Mar-17 23:33N 47°35' W 122°21'0 0.1
2017-Mar-17 22:33N 47°35' W 122°21'0 0.0
2017-Mar-17 21:33N 47°35' W 122°21'0 0.0
2017-Mar-17 20:33N 47°35' W 122°21'2 2.5
2017-Mar-17 19:33N 47°33' W 122°20'0 0.0
2017-Mar-17 18:33N 47°33' W 122°20'0 0.0
2017-Mar-17 17:34N 47°33' W 122°20'0 0.0
2017-Mar-17 16:33N 47°33' W 122°20'0 0.0
2017-Mar-17 15:33N 47°33' W 122°20'0 0.0
2017-Mar-17 14:33N 47°33' W 122°20'0 0.0
2017-Mar-17 13:33N 47°33' W 122°20'0 0.0
2017-Mar-17 12:34N 47°33' W 122°20'0 0.0
2017-Mar-17 11:33N 47°33' W 122°20'0 0.0
2017-Mar-17 10:33N 47°33' W 122°20'0 0.0
2017-Mar-17 09:33N 47°33' W 122°20'0 0.0
2017-Mar-17 08:33N 47°33' W 122°20'0 0.0
2017-Mar-17 07:33N 47°33' W 122°20'0 0.0
2017-Mar-17 06:33N 47°33' W 122°20'0 0.0
2017-Mar-17 05:33N 47°33' W 122°20'0 0.0
2017-Mar-17 04:33N 47°33' W 122°20'0 0.0
2017-Mar-17 03:33N 47°33' W 122°20'0 0.0
2017-Mar-17 02:33N 47°33' W 122°20'0 0.0
2017-Mar-17 01:33N 47°33' W 122°20'0 0.0
2017-Mar-17 00:33N 47°33' W 122°20'0 0.0
2017-Mar-16 23:33N 47°33' W 122°20'0 0.0
2017-Mar-16 22:33N 47°33' W 122°20'0 0.0
2017-Mar-16 21:33N 47°33' W 122°20'0 0.0
2017-Mar-16 20:33N 47°33' W 122°20'0 0.1
2017-Mar-16 19:34N 47°33' W 122°20'0 0.0
2017-Mar-16 18:33N 47°33' W 122°20'0 0.0
2017-Mar-16 17:33N 47°33' W 122°20'1 0.8
2017-Mar-16 16:34N 47°32' W 122°20'0 0.2
2017-Mar-16 15:33N 47°32' W 122°20'0 0.0
2017-Mar-16 14:33N 47°32' W 122°20'0 0.0
2017-Mar-16 13:33N 47°32' W 122°20'0 0.0
2017-Mar-16 12:33N 47°32' W 122°20'0 0.0
2017-Mar-16 11:33N 47°32' W 122°20'0 0.0
2017-Mar-16 10:33N 47°32' W 122°20'0 0.0
2017-Mar-16 09:33N 47°32' W 122°20'0 0.0
2017-Mar-16 08:33N 47°32' W 122°20'0 0.0
2017-Mar-16 07:33N 47°32' W 122°20'0 0.0
2017-Mar-16 06:33N 47°32' W 122°20'0 0.0
2017-Mar-16 05:33N 47°32' W 122°20'0 0.0
2017-Mar-16 04:33N 47°32' W 122°20'0 0.0
2017-Mar-16 03:33N 47°32' W 122°20'0 0.0
2017-Mar-16 02:33N 47°32' W 122°20'0 0.0
2017-Mar-16 01:33N 47°32' W 122°20'0 0.0
2017-Mar-16 00:33N 47°32' W 122°20'0 0.0
2017-Mar-15 23:33N 47°32' W 122°20'0 0.0
2017-Mar-15 22:33N 47°32' W 122°20'0 0.0
2017-Mar-15 21:33N 47°32' W 122°20'0 0.0
2017-Mar-15 20:33N 47°32' W 122°20'0 0.0
2017-Mar-15 19:33N 47°32' W 122°20'0 0.0
2017-Mar-15 18:33N 47°32' W 122°20'0 0.0
2017-Mar-15 17:33N 47°32' W 122°20'0 0.0
2017-Mar-15 16:33N 47°32' W 122°20'0 0.0
2017-Mar-15 15:33N 47°32' W 122°20'0 0.0
2017-Mar-15 14:33N 47°32' W 122°20'0 0.0
2017-Mar-15 13:33N 47°32' W 122°20'0 0.0
2017-Mar-15 12:33N 47°32' W 122°20'0 0.0
2017-Mar-15 11:33N 47°32' W 122°20'0 0.0
2017-Mar-15 10:33N 47°32' W 122°20'0 0.0
2017-Mar-15 09:33N 47°32' W 122°20'0 0.0
2017-Mar-15 08:33N 47°32' W 122°20'0 0.0
2017-Mar-15 07:33N 47°32' W 122°20'0 0.0
2017-Mar-15 06:33N 47°32' W 122°20'0 0.0
2017-Mar-15 05:33N 47°32' W 122°20'0 0.0
2017-Mar-15 04:33N 47°32' W 122°20'0 0.0
2017-Mar-15 03:33N 47°32' W 122°20'0 0.0
2017-Mar-15 02:33N 47°32' W 122°20'0 0.0
2017-Mar-15 01:33N 47°32' W 122°20'0 0.0
2017-Mar-15 00:33N 47°32' W 122°20'0 0.0
2017-Mar-14 23:33N 47°32' W 122°20'0 0.0
2017-Mar-14 22:33N 47°32' W 122°20'0 0.0
2017-Mar-14 21:33N 47°32' W 122°20'0 0.0
2017-Mar-14 20:33N 47°32' W 122°20'0 0.0
2017-Mar-14 19:33N 47°32' W 122°20'0 0.0
2017-Mar-14 18:33N 47°32' W 122°20'0 0.0
2017-Mar-14 17:33N 47°32' W 122°20'0 0.0
2017-Mar-14 16:33N 47°32' W 122°20'0 0.0
2017-Mar-14 15:33N 47°32' W 122°20'0 0.0
2017-Mar-14 14:33N 47°32' W 122°20'0 0.0
2017-Mar-14 13:33N 47°32' W 122°20'0 0.0
2017-Mar-14 12:33N 47°32' W 122°20'0 0.0
2017-Mar-14 11:33N 47°32' W 122°20'0 0.0
2017-Mar-14 10:33N 47°32' W 122°20'0 0.0
2017-Mar-14 09:34N 47°32' W 122°20'0 0.0
2017-Mar-14 08:33N 47°32' W 122°20'0 0.0
2017-Mar-14 07:33N 47°32' W 122°20'0 0.0
2017-Mar-14 06:33N 47°32' W 122°20'0 0.0
2017-Mar-14 05:33N 47°32' W 122°20'0 0.0
2017-Mar-14 04:33N 47°32' W 122°20'0 0.0
2017-Mar-14 03:33N 47°32' W 122°20'0 0.0
2017-Mar-14 02:33N 47°32' W 122°20'0 0.0
2017-Mar-14 01:33N 47°32' W 122°20'0 0.0
2017-Mar-14 00:33N 47°32' W 122°20'0 0.0
2017-Mar-13 23:33N 47°32' W 122°20'0 0.0
2017-Mar-13 22:33N 47°32' W 122°20'0 0.0
2017-Mar-13 21:33N 47°32' W 122°20'0 0.0
2017-Mar-13 20:33N 47°32' W 122°20'0 0.0
2017-Mar-13 19:33N 47°32' W 122°20'0 0.0
2017-Mar-13 18:33N 47°32' W 122°20'0 0.0
2017-Mar-13 17:33N 47°32' W 122°20'0 0.0
2017-Mar-13 16:33N 47°32' W 122°20'0 0.5
2017-Mar-13 15:33N 47°32' W 122°20'0 0.0
2017-Mar-13 14:33N 47°32' W 122°20'0 0.0
2017-Mar-13 13:33N 47°32' W 122°20'0 0.0
2017-Mar-13 12:33N 47°32' W 122°20'0 0.0
2017-Mar-13 11:33N 47°32' W 122°20'0 0.0
2017-Mar-13 10:33N 47°32' W 122°20'0 0.0
2017-Mar-13 09:33N 47°32' W 122°20'0 0.0
2017-Mar-13 08:33N 47°32' W 122°20'0 0.0
2017-Mar-13 07:33N 47°32' W 122°20'0 0.0
2017-Mar-13 06:33N 47°32' W 122°20'0 0.0
2017-Mar-13 05:32N 47°32' W 122°20'0 0.0
2017-Mar-13 04:33N 47°32' W 122°20'0 0.0
2017-Mar-13 03:33N 47°32' W 122°20'0 0.0
2017-Mar-13 02:33N 47°32' W 122°20'0 0.0
2017-Mar-13 01:33N 47°32' W 122°20'0 0.0
2017-Mar-13 00:32N 47°32' W 122°20'0 0.0
2017-Mar-12 23:33N 47°32' W 122°20'0 0.0
2017-Mar-12 22:33N 47°32' W 122°20'0 0.0
2017-Mar-12 21:33N 47°32' W 122°20'0 0.0
2017-Mar-12 20:33N 47°32' W 122°20'0 0.0
2017-Mar-12 19:33N 47°32' W 122°20'0 0.0
2017-Mar-12 18:29N 47°32' W 122°20'0 0.0
2017-Mar-12 17:33N 47°32' W 122°20'0 0.0
2017-Mar-12 16:33N 47°32' W 122°20'0 0.0
2017-Mar-12 15:33N 47°32' W 122°20'0 0.0
2017-Mar-12 14:33N 47°32' W 122°20'0 0.0
2017-Mar-12 13:33N 47°32' W 122°20'0 0.0
2017-Mar-12 12:33N 47°32' W 122°20'0 0.0
2017-Mar-12 11:33N 47°32' W 122°20'0 0.0
2017-Mar-12 10:33N 47°32' W 122°20'0 0.0
2017-Mar-12 09:33N 47°32' W 122°20'0 0.0
2017-Mar-12 08:33N 47°32' W 122°20'0 0.0
2017-Mar-12 07:34N 47°32' W 122°20'0 0.0
2017-Mar-12 06:33N 47°32' W 122°20'0 0.0
2017-Mar-12 05:32N 47°32' W 122°20'0 0.0
2017-Mar-12 04:33N 47°32' W 122°20'0 0.0
2017-Mar-12 03:32N 47°32' W 122°20'0 0.0
2017-Mar-12 02:33N 47°32' W 122°20'0 0.0
2017-Mar-12 01:33N 47°32' W 122°20'0 0.0
2017-Mar-12 00:33N 47°32' W 122°20'0 0.0
2017-Mar-11 23:33N 47°32' W 122°20'0 0.0
2017-Mar-11 22:33N 47°32' W 122°20'0 0.0
2017-Mar-11 21:33N 47°32' W 122°20'0 0.0
2017-Mar-11 20:33N 47°32' W 122°20'0 0.0
2017-Mar-11 19:33N 47°32' W 122°20'0 0.0
2017-Mar-11 18:33N 47°32' W 122°20'0 0.0
2017-Mar-11 17:33N 47°32' W 122°20'0 0.0
2017-Mar-11 16:33N 47°32' W 122°20'0 0.0
2017-Mar-11 15:33N 47°32' W 122°20'0 0.0
2017-Mar-11 14:33N 47°32' W 122°20'0 0.0
2017-Mar-11 13:33N 47°32' W 122°20'0 0.0
2017-Mar-11 12:33N 47°32' W 122°20'0 0.0
2017-Mar-11 11:33N 47°32' W 122°20'0 0.0
2017-Mar-11 10:33N 47°32' W 122°20'0 0.0
2017-Mar-11 09:33N 47°32' W 122°20'0 0.0
2017-Mar-11 08:33N 47°32' W 122°20'0 0.0
2017-Mar-11 07:33N 47°32' W 122°20'0 0.0
2017-Mar-11 06:33N 47°32' W 122°20'0 0.0
2017-Mar-11 05:29N 47°32' W 122°20'0 0.0
2017-Mar-11 04:32N 47°32' W 122°20'0 0.0
2017-Mar-11 03:33N 47°32' W 122°20'0 0.0
2017-Mar-11 02:33N 47°32' W 122°20'0 0.0
2017-Mar-11 01:33N 47°32' W 122°20'0 0.0
2017-Mar-11 00:33N 47°32' W 122°20'0 0.0
2017-Mar-10 23:33N 47°32' W 122°20'0 0.0
2017-Mar-10 22:33N 47°32' W 122°20'0 0.0
2017-Mar-10 21:33N 47°32' W 122°20'0 0.0
2017-Mar-10 20:33N 47°32' W 122°20'0 0.0
2017-Mar-10 19:33N 47°32' W 122°20'0 0.0
2017-Mar-10 18:33N 47°32' W 122°20'0 0.0
2017-Mar-10 17:32N 47°32' W 122°20'0 0.0
2017-Mar-10 16:32N 47°32' W 122°20'0 0.0
2017-Mar-10 15:33N 47°32' W 122°20'0 0.0
2017-Mar-10 14:33N 47°32' W 122°20'0 0.0
2017-Mar-10 13:33N 47°32' W 122°20'0 0.0
2017-Mar-10 12:33N 47°32' W 122°20'0 0.0
2017-Mar-10 11:33N 47°32' W 122°20'  
Track history (hours):
 
Tides and Currents Weather Stations Pressure Air Temp Water Temp Dewpoint Dewpoint Depression Visibility Wind Speed Wind Dir Waves Ship Positions

Greta

Owner: General Electric Credit Corporation Of Tennessee, Seattle, WA. More information available from US FCC via Universal Licensing System and Coast Guard Vessel Documentation Center.

Last reported at 2017-Mar-20 11:16 UTC. Time now 2017-Aug-22 05:11 UTC.
Position N 51°34' W 127°53'.
Warning: this ship's position is months out of date.

Length 44 m; draft 2 m.

Type: Ship. MMSI: 367438220.

Date/timePositionNaut miles runAvg speedWind from/ knotsBaromVisibWave heightAir tempDewpointWater temp
2017-Mar-20 11:16N 51°34' W 127°53'5 6.3
2017-Mar-20 10:33N 51°29' W 127°52'7 6.2
2017-Mar-20 09:24N 51°22' W 127°51'5 5.7
2017-Mar-20 08:33N 51°17' W 127°52'6 6.0
2017-Mar-20 07:33N 51°11' W 127°51'6 5.8
2017-Mar-20 06:33N 51°06' W 127°45'6 6.1
2017-Mar-20 05:33N 51°02' W 127°38'6 6.0
2017-Mar-20 04:33N 50°58' W 127°31'6 6.1
2017-Mar-20 03:33N 50°55' W 127°24'6 6.2
2017-Mar-20 02:33N 50°51' W 127°15'6 6.5
2017-Mar-20 01:33N 50°48' W 127°07'56 6.8
2017-Mar-19 17:19N 50°23' W 125°48'6 7.0
2017-Mar-19 16:31N 50°22' W 125°39'7 6.0
2017-Mar-19 15:19N 50°20' W 125°28'4 5.1
2017-Mar-19 14:32N 50°17' W 125°24'6 6.3
2017-Mar-19 13:33N 50°11' W 125°22'5 4.9
2017-Mar-19 12:33N 50°07' W 125°19'7 6.7
2017-Mar-19 11:33N 50°01' W 125°13'6 6.3
2017-Mar-19 10:33N 49°57' W 125°06'6 6.1
2017-Mar-19 09:33N 49°53' W 124°59'6 6.3
2017-Mar-19 08:33N 49°49' W 124°51'6 6.4
2017-Mar-19 07:33N 49°45' W 124°43'7 7.1
2017-Mar-19 06:33N 49°41' W 124°34'6 5.8
2017-Mar-19 05:33N 49°37' W 124°28'6 5.8
2017-Mar-19 04:33N 49°34' W 124°20'6 5.7
2017-Mar-19 03:33N 49°31' W 124°13'6 5.9
2017-Mar-19 02:33N 49°27' W 124°06'6 5.6
2017-Mar-19 01:33N 49°24' W 123°59'6 6.2
2017-Mar-19 00:33N 49°20' W 123°51'6 5.7
2017-Mar-18 23:33N 49°17' W 123°44'6 5.5
2017-Mar-18 22:32N 49°13' W 123°38'4 4.5
2017-Mar-18 21:33N 49°10' W 123°32'3 3.3
2017-Mar-18 20:33N 49°08' W 123°29'3 3.0
2017-Mar-18 19:33N 49°06' W 123°25'4 4.5
2017-Mar-18 18:33N 49°03' W 123°20'5 5.0
2017-Mar-18 17:33N 49°00' W 123°14'5 5.1
2017-Mar-18 16:33N 48°57' W 123°08'6 6.3
2017-Mar-18 15:33N 48°53' W 123°01'6 6.0
2017-Mar-18 14:32N 48°49' W 122°53'6 6.1
2017-Mar-18 13:33N 48°46' W 122°46'6 5.9
2017-Mar-18 12:33N 48°40' W 122°42'6 6.5
2017-Mar-18 11:33N 48°34' W 122°45'6 6.4
2017-Mar-18 10:33N 48°28' W 122°44'6 6.5
2017-Mar-18 09:33N 48°21' W 122°45'6 6.5
2017-Mar-18 08:33N 48°15' W 122°48'8 7.6
2017-Mar-18 07:33N 48°09' W 122°42'8 8.1
2017-Mar-18 06:33N 48°01' W 122°37'7 7.5
2017-Mar-18 05:33N 47°56' W 122°29'6 6.5
2017-Mar-18 04:33N 47°50' W 122°27'6 6.4
2017-Mar-18 03:33N 47°43' W 122°26'6 5.9
2017-Mar-18 02:33N 47°37' W 122°25'3 2.8
2017-Mar-18 01:33N 47°35' W 122°22'0 0.0
2017-Mar-18 00:33N 47°35' W 122°22'1 0.6
2017-Mar-17 23:33N 47°35' W 122°21'0 0.1
2017-Mar-17 22:33N 47°35' W 122°21'0 0.0
2017-Mar-17 21:33N 47°35' W 122°21'0 0.0
2017-Mar-17 20:33N 47°35' W 122°21'2 2.5
2017-Mar-17 19:33N 47°33' W 122°20'0 0.0
2017-Mar-17 18:33N 47°33' W 122°20'0 0.0
2017-Mar-17 17:34N 47°33' W 122°20'0 0.0
2017-Mar-17 16:33N 47°33' W 122°20'0 0.0
2017-Mar-17 15:33N 47°33' W 122°20'0 0.0
2017-Mar-17 14:33N 47°33' W 122°20'0 0.0
2017-Mar-17 13:33N 47°33' W 122°20'0 0.0
2017-Mar-17 12:34N 47°33' W 122°20'0 0.0
2017-Mar-17 11:33N 47°33' W 122°20'0 0.0
2017-Mar-17 10:33N 47°33' W 122°20'0 0.0
2017-Mar-17 09:33N 47°33' W 122°20'0 0.0
2017-Mar-17 08:33N 47°33' W 122°20'0 0.0
2017-Mar-17 07:33N 47°33' W 122°20'0 0.0
2017-Mar-17 06:33N 47°33' W 122°20'0 0.0
2017-Mar-17 05:33N 47°33' W 122°20'0 0.0
2017-Mar-17 04:33N 47°33' W 122°20'0 0.0
2017-Mar-17 03:33N 47°33' W 122°20'0 0.0
2017-Mar-17 02:33N 47°33' W 122°20'0 0.0
2017-Mar-17 01:33N 47°33' W 122°20'0 0.0
2017-Mar-17 00:33N 47°33' W 122°20'0 0.0
2017-Mar-16 23:33N 47°33' W 122°20'0 0.0
2017-Mar-16 22:33N 47°33' W 122°20'0 0.0
2017-Mar-16 21:33N 47°33' W 122°20'0 0.0
2017-Mar-16 20:33N 47°33' W 122°20'0 0.1
2017-Mar-16 19:34N 47°33' W 122°20'0 0.0
2017-Mar-16 18:33N 47°33' W 122°20'0 0.0
2017-Mar-16 17:33N 47°33' W 122°20'1 0.8
2017-Mar-16 16:34N 47°32' W 122°20'0 0.2
2017-Mar-16 15:33N 47°32' W 122°20'0 0.0
2017-Mar-16 14:33N 47°32' W 122°20'0 0.0
2017-Mar-16 13:33N 47°32' W 122°20'0 0.0
2017-Mar-16 12:33N 47°32' W 122°20'0 0.0
2017-Mar-16 11:33N 47°32' W 122°20'0 0.0
2017-Mar-16 10:33N 47°32' W 122°20'0 0.0
2017-Mar-16 09:33N 47°32' W 122°20'0 0.0
2017-Mar-16 08:33N 47°32' W 122°20'0 0.0
2017-Mar-16 07:33N 47°32' W 122°20'0 0.0
2017-Mar-16 06:33N 47°32' W 122°20'0 0.0
2017-Mar-16 05:33N 47°32' W 122°20'0 0.0
2017-Mar-16 04:33N 47°32' W 122°20'0 0.0
2017-Mar-16 03:33N 47°32' W 122°20'0 0.0
2017-Mar-16 02:33N 47°32' W 122°20'0 0.0
2017-Mar-16 01:33N 47°32' W 122°20'0 0.0
2017-Mar-16 00:33N 47°32' W 122°20'0 0.0
2017-Mar-15 23:33N 47°32' W 122°20'0 0.0
2017-Mar-15 22:33N 47°32' W 122°20'0 0.0
2017-Mar-15 21:33N 47°32' W 122°20'0 0.0
2017-Mar-15 20:33N 47°32' W 122°20'0 0.0
2017-Mar-15 19:33N 47°32' W 122°20'0 0.0
2017-Mar-15 18:33N 47°32' W 122°20'0 0.0
2017-Mar-15 17:33N 47°32' W 122°20'0 0.0
2017-Mar-15 16:33N 47°32' W 122°20'0 0.0
2017-Mar-15 15:33N 47°32' W 122°20'0 0.0
2017-Mar-15 14:33N 47°32' W 122°20'0 0.0
2017-Mar-15 13:33N 47°32' W 122°20'0 0.0
2017-Mar-15 12:33N 47°32' W 122°20'0 0.0
2017-Mar-15 11:33N 47°32' W 122°20'0 0.0
2017-Mar-15 10:33N 47°32' W 122°20'0 0.0
2017-Mar-15 09:33N 47°32' W 122°20'0 0.0
2017-Mar-15 08:33N 47°32' W 122°20'0 0.0
2017-Mar-15 07:33N 47°32' W 122°20'0 0.0
2017-Mar-15 06:33N 47°32' W 122°20'0 0.0
2017-Mar-15 05:33N 47°32' W 122°20'0 0.0
2017-Mar-15 04:33N 47°32' W 122°20'0 0.0
2017-Mar-15 03:33N 47°32' W 122°20'0 0.0
2017-Mar-15 02:33N 47°32' W 122°20'0 0.0
2017-Mar-15 01:33N 47°32' W 122°20'0 0.0
2017-Mar-15 00:33N 47°32' W 122°20'0 0.0
2017-Mar-14 23:33N 47°32' W 122°20'0 0.0
2017-Mar-14 22:33N 47°32' W 122°20'0 0.0
2017-Mar-14 21:33N 47°32' W 122°20'0 0.0
2017-Mar-14 20:33N 47°32' W 122°20'0 0.0
2017-Mar-14 19:33N 47°32' W 122°20'0 0.0
2017-Mar-14 18:33N 47°32' W 122°20'0 0.0
2017-Mar-14 17:33N 47°32' W 122°20'0 0.0
2017-Mar-14 16:33N 47°32' W 122°20'0 0.0
2017-Mar-14 15:33N 47°32' W 122°20'0 0.0
2017-Mar-14 14:33N 47°32' W 122°20'0 0.0
2017-Mar-14 13:33N 47°32' W 122°20'0 0.0
2017-Mar-14 12:33N 47°32' W 122°20'0 0.0
2017-Mar-14 11:33N 47°32' W 122°20'0 0.0
2017-Mar-14 10:33N 47°32' W 122°20'0 0.0
2017-Mar-14 09:34N 47°32' W 122°20'0 0.0
2017-Mar-14 08:33N 47°32' W 122°20'0 0.0
2017-Mar-14 07:33N 47°32' W 122°20'0 0.0
2017-Mar-14 06:33N 47°32' W 122°20'0 0.0
2017-Mar-14 05:33N 47°32' W 122°20'0 0.0
2017-Mar-14 04:33N 47°32' W 122°20'0 0.0
2017-Mar-14 03:33N 47°32' W 122°20'0 0.0
2017-Mar-14 02:33N 47°32' W 122°20'0 0.0
2017-Mar-14 01:33N 47°32' W 122°20'0 0.0
2017-Mar-14 00:33N 47°32' W 122°20'0 0.0
2017-Mar-13 23:33N 47°32' W 122°20'0 0.0
2017-Mar-13 22:33N 47°32' W 122°20'0 0.0
2017-Mar-13 21:33N 47°32' W 122°20'0 0.0
2017-Mar-13 20:33N 47°32' W 122°20'0 0.0
2017-Mar-13 19:33N 47°32' W 122°20'0 0.0
2017-Mar-13 18:33N 47°32' W 122°20'0 0.0
2017-Mar-13 17:33N 47°32' W 122°20'0 0.0
2017-Mar-13 16:33N 47°32' W 122°20'0 0.5
2017-Mar-13 15:33N 47°32' W 122°20'0 0.0
2017-Mar-13 14:33N 47°32' W 122°20'0 0.0
2017-Mar-13 13:33N 47°32' W 122°20'0 0.0
2017-Mar-13 12:33N 47°32' W 122°20'0 0.0
2017-Mar-13 11:33N 47°32' W 122°20'0 0.0
2017-Mar-13 10:33N 47°32' W 122°20'0 0.0
2017-Mar-13 09:33N 47°32' W 122°20'0 0.0
2017-Mar-13 08:33N 47°32' W 122°20'0 0.0
2017-Mar-13 07:33N 47°32' W 122°20'0 0.0
2017-Mar-13 06:33N 47°32' W 122°20'0 0.0
2017-Mar-13 05:32N 47°32' W 122°20'0 0.0
2017-Mar-13 04:33N 47°32' W 122°20'0 0.0
2017-Mar-13 03:33N 47°32' W 122°20'0 0.0
2017-Mar-13 02:33N 47°32' W 122°20'0 0.0
2017-Mar-13 01:33N 47°32' W 122°20'0 0.0
2017-Mar-13 00:32N 47°32' W 122°20'0 0.0
2017-Mar-12 23:33N 47°32' W 122°20'0 0.0
2017-Mar-12 22:33N 47°32' W 122°20'0 0.0
2017-Mar-12 21:33N 47°32' W 122°20'0 0.0
2017-Mar-12 20:33N 47°32' W 122°20'0 0.0
2017-Mar-12 19:33N 47°32' W 122°20'0 0.0
2017-Mar-12 18:29N 47°32' W 122°20'0 0.0
2017-Mar-12 17:33N 47°32' W 122°20'0 0.0
2017-Mar-12 16:33N 47°32' W 122°20'0 0.0
2017-Mar-12 15:33N 47°32' W 122°20'0 0.0
2017-Mar-12 14:33N 47°32' W 122°20'0 0.0
2017-Mar-12 13:33N 47°32' W 122°20'0 0.0
2017-Mar-12 12:33N 47°32' W 122°20'0 0.0
2017-Mar-12 11:33N 47°32' W 122°20'0 0.0
2017-Mar-12 10:33N 47°32' W 122°20'0 0.0
2017-Mar-12 09:33N 47°32' W 122°20'0 0.0
2017-Mar-12 08:33N 47°32' W 122°20'0 0.0
2017-Mar-12 07:34N 47°32' W 122°20'0 0.0
2017-Mar-12 06:33N 47°32' W 122°20'0 0.0
2017-Mar-12 05:32N 47°32' W 122°20'0 0.0
2017-Mar-12 04:33N 47°32' W 122°20'0 0.0
2017-Mar-12 03:32N 47°32' W 122°20'0 0.0
2017-Mar-12 02:33N 47°32' W 122°20'0 0.0
2017-Mar-12 01:33N 47°32' W 122°20'0 0.0
2017-Mar-12 00:33N 47°32' W 122°20'0 0.0
2017-Mar-11 23:33N 47°32' W 122°20'0 0.0
2017-Mar-11 22:33N 47°32' W 122°20'0 0.0
2017-Mar-11 21:33N 47°32' W 122°20'0 0.0
2017-Mar-11 20:33N 47°32' W 122°20'0 0.0
2017-Mar-11 19:33N 47°32' W 122°20'0 0.0
2017-Mar-11 18:33N 47°32' W 122°20'0 0.0
2017-Mar-11 17:33N 47°32' W 122°20'0 0.0
2017-Mar-11 16:33N 47°32' W 122°20'0 0.0
2017-Mar-11 15:33N 47°32' W 122°20'0 0.0
2017-Mar-11 14:33N 47°32' W 122°20'0 0.0
2017-Mar-11 13:33N 47°32' W 122°20'0 0.0
2017-Mar-11 12:33N 47°32' W 122°20'0 0.0
2017-Mar-11 11:33N 47°32' W 122°20'0 0.0
2017-Mar-11 10:33N 47°32' W 122°20'0 0.0
2017-Mar-11 09:33N 47°32' W 122°20'0 0.0
2017-Mar-11 08:33N 47°32' W 122°20'0 0.0
2017-Mar-11 07:33N 47°32' W 122°20'0 0.0
2017-Mar-11 06:33N 47°32' W 122°20'0 0.0
2017-Mar-11 05:29N 47°32' W 122°20'0 0.0
2017-Mar-11 04:32N 47°32' W 122°20'0 0.0
2017-Mar-11 03:33N 47°32' W 122°20'0 0.0
2017-Mar-11 02:33N 47°32' W 122°20'0 0.0
2017-Mar-11 01:33N 47°32' W 122°20'0 0.0
2017-Mar-11 00:33N 47°32' W 122°20'0 0.0
2017-Mar-10 23:33N 47°32' W 122°20'0 0.0
2017-Mar-10 22:33N 47°32' W 122°20'0 0.0
2017-Mar-10 21:33N 47°32' W 122°20'0 0.0
2017-Mar-10 20:33N 47°32' W 122°20'0 0.0
2017-Mar-10 19:33N 47°32' W 122°20'0 0.0
2017-Mar-10 18:33N 47°32' W 122°20'0 0.0
2017-Mar-10 17:32N 47°32' W 122°20'0 0.0
2017-Mar-10 16:32N 47°32' W 122°20'0 0.0
2017-Mar-10 15:33N 47°32' W 122°20'0 0.0
2017-Mar-10 14:33N 47°32' W 122°20'0 0.0
2017-Mar-10 13:33N 47°32' W 122°20'0 0.0
2017-Mar-10 12:33N 47°32' W 122°20'0 0.0
2017-Mar-10 11:33N 47°32' W 122°20'  

Dump ship's entire track history